sensor_id;sensor_type;location;lat;lon;timestamp;P1;durP1;ratioP1;P2;durP2;ratioP2
7729;SDS011;3908;52.310;7.230;2024-01-10T00:02:15;4.63;;;3.90;;
7729;SDS011;3908;52.310;7.230;2024-01-10T00:05:04;4.13;;;3.70;;
7729;SDS011;3908;52.310;7.230;2024-01-10T00:07:52;5.77;;;3.87;;
7729;SDS011;3908;52.310;7.230;2024-01-10T00:10:39;6.27;;;3.53;;
7729;SDS011;3908;52.310;7.230;2024-01-10T00:13:26;4.50;;;4.10;;
7729;SDS011;3908;52.310;7.230;2024-01-10T00:16:14;6.23;;;4.83;;
7729;SDS011;3908;52.310;7.230;2024-01-10T00:19:01;4.60;;;4.20;;
7729;SDS011;3908;52.310;7.230;2024-01-10T00:21:50;4.87;;;4.03;;
7729;SDS011;3908;52.310;7.230;2024-01-10T00:24:37;3.50;;;3.13;;
7729;SDS011;3908;52.310;7.230;2024-01-10T00:45:30;4.07;;;3.47;;
7729;SDS011;3908;52.310;7.230;2024-01-10T00:48:19;5.53;;;4.17;;
7729;SDS011;3908;52.310;7.230;2024-01-10T00:51:07;4.50;;;4.10;;
7729;SDS011;3908;52.310;7.230;2024-01-10T00:53:54;4.70;;;3.50;;
7729;SDS011;3908;52.310;7.230;2024-01-10T00:56:41;4.77;;;4.37;;
7729;SDS011;3908;52.310;7.230;2024-01-10T00:59:28;5.03;;;4.00;;
7729;SDS011;3908;52.310;7.230;2024-01-10T01:02:16;6.20;;;3.83;;
7729;SDS011;3908;52.310;7.230;2024-01-10T01:05:04;5.30;;;3.67;;
7729;SDS011;3908;52.310;7.230;2024-01-10T01:07:52;6.37;;;3.67;;
7729;SDS011;3908;52.310;7.230;2024-01-10T01:10:39;5.20;;;3.93;;
7729;SDS011;3908;52.310;7.230;2024-01-10T01:13:26;6.23;;;3.73;;
7729;SDS011;3908;52.310;7.230;2024-01-10T01:16:13;3.80;;;3.50;;
7729;SDS011;3908;52.310;7.230;2024-01-10T01:19:02;3.97;;;2.63;;
7729;SDS011;3908;52.310;7.230;2024-01-10T01:21:49;13.87;;;3.57;;
7729;SDS011;3908;52.310;7.230;2024-01-10T01:24:36;4.50;;;3.53;;
7729;SDS011;3908;52.310;7.230;2024-01-10T01:27:23;4.60;;;3.30;;
7729;SDS011;3908;52.310;7.230;2024-01-10T01:30:02;7.97;;;4.40;;
7729;SDS011;3908;52.310;7.230;2024-01-10T01:32:50;3.60;;;3.30;;
7729;SDS011;3908;52.310;7.230;2024-01-10T01:35:39;4.27;;;3.97;;
7729;SDS011;3908;52.310;7.230;2024-01-10T01:38:26;7.17;;;3.60;;
7729;SDS011;3908;52.310;7.230;2024-01-10T01:41:13;5.40;;;4.43;;
7729;SDS011;3908;52.310;7.230;2024-01-10T01:44:00;3.90;;;3.47;;
7729;SDS011;3908;52.310;7.230;2024-01-10T01:46:47;4.00;;;3.60;;
7729;SDS011;3908;52.310;7.230;2024-01-10T02:45:23;4.03;;;3.63;;
7729;SDS011;3908;52.310;7.230;2024-01-10T03:19:12;5.00;;;4.60;;
7729;SDS011;3908;52.310;7.230;2024-01-10T03:21:59;8.90;;;5.83;;
7729;SDS011;3908;52.310;7.230;2024-01-10T03:24:46;6.37;;;4.40;;
7729;SDS011;3908;52.310;7.230;2024-01-10T03:27:33;4.90;;;4.13;;
7729;SDS011;3908;52.310;7.230;2024-01-10T03:30:20;9.57;;;4.63;;
7729;SDS011;3908;52.310;7.230;2024-01-10T03:33:09;7.20;;;5.03;;
7729;SDS011;3908;52.310;7.230;2024-01-10T03:35:58;6.23;;;4.53;;
7729;SDS011;3908;52.310;7.230;2024-01-10T03:38:45;6.23;;;4.23;;
7729;SDS011;3908;52.310;7.230;2024-01-10T03:41:32;4.67;;;4.07;;
7729;SDS011;3908;52.310;7.230;2024-01-10T03:44:19;5.90;;;4.20;;
7729;SDS011;3908;52.310;7.230;2024-01-10T03:47:06;5.87;;;4.50;;
7729;SDS011;3908;52.310;7.230;2024-01-10T03:49:53;7.17;;;5.03;;
7729;SDS011;3908;52.310;7.230;2024-01-10T03:52:42;6.07;;;5.47;;
7729;SDS011;3908;52.310;7.230;2024-01-10T03:55:29;7.13;;;4.53;;
7729;SDS011;3908;52.310;7.230;2024-01-10T03:58:16;8.60;;;5.03;;
7729;SDS011;3908;52.310;7.230;2024-01-10T04:01:06;6.97;;;4.83;;
7729;SDS011;3908;52.310;7.230;2024-01-10T04:03:54;5.77;;;4.70;;
7729;SDS011;3908;52.310;7.230;2024-01-10T04:06:41;9.90;;;5.63;;
7729;SDS011;3908;52.310;7.230;2024-01-10T04:09:29;8.87;;;5.27;;
7729;SDS011;3908;52.310;7.230;2024-01-10T04:12:17;12.17;;;5.60;;
7729;SDS011;3908;52.310;7.230;2024-01-10T04:15:04;7.77;;;5.23;;
7729;SDS011;3908;52.310;7.230;2024-01-10T04:17:52;8.47;;;5.13;;
7729;SDS011;3908;52.310;7.230;2024-01-10T04:20:39;7.20;;;5.23;;
7729;SDS011;3908;52.310;7.230;2024-01-10T04:23:27;4.77;;;4.30;;
7729;SDS011;3908;52.310;7.230;2024-01-10T04:26:17;6.10;;;5.10;;
7729;SDS011;3908;52.310;7.230;2024-01-10T04:29:04;6.83;;;5.07;;
7729;SDS011;3908;52.310;7.230;2024-01-10T04:31:51;14.27;;;5.60;;
7729;SDS011;3908;52.310;7.230;2024-01-10T04:34:39;7.40;;;5.40;;
7729;SDS011;3908;52.310;7.230;2024-01-10T04:37:26;7.90;;;4.70;;
7729;SDS011;3908;52.310;7.230;2024-01-10T04:40:13;10.07;;;5.70;;
7729;SDS011;3908;52.310;7.230;2024-01-10T04:43:01;6.27;;;4.90;;
7729;SDS011;3908;52.310;7.230;2024-01-10T04:45:49;12.67;;;5.43;;
7729;SDS011;3908;52.310;7.230;2024-01-10T04:48:36;9.07;;;5.03;;
7729;SDS011;3908;52.310;7.230;2024-01-10T04:51:23;13.17;;;6.07;;
7729;SDS011;3908;52.310;7.230;2024-01-10T04:54:11;8.17;;;5.50;;
7729;SDS011;3908;52.310;7.230;2024-01-10T05:25:26;9.50;;;6.60;;
7729;SDS011;3908;52.310;7.230;2024-01-10T05:28:17;13.07;;;6.57;;
7729;SDS011;3908;52.310;7.230;2024-01-10T05:49:09;15.57;;;6.27;;
7729;SDS011;3908;52.310;7.230;2024-01-10T05:51:56;15.03;;;6.70;;
7729;SDS011;3908;52.310;7.230;2024-01-10T05:54:44;16.87;;;6.13;;
7729;SDS011;3908;52.310;7.230;2024-01-10T05:57:31;5.93;;;5.23;;
7729;SDS011;3908;52.310;7.230;2024-01-10T06:00:20;14.73;;;6.60;;
7729;SDS011;3908;52.310;7.230;2024-01-10T06:03:07;10.07;;;6.70;;
7729;SDS011;3908;52.310;7.230;2024-01-10T06:05:56;13.87;;;6.10;;
7729;SDS011;3908;52.310;7.230;2024-01-10T06:08:43;11.60;;;7.17;;
7729;SDS011;3908;52.310;7.230;2024-01-10T06:11:30;8.93;;;6.40;;
7729;SDS011;3908;52.310;7.230;2024-01-10T06:14:20;7.63;;;5.67;;
7729;SDS011;3908;52.310;7.230;2024-01-10T06:17:07;9.03;;;6.70;;
7729;SDS011;3908;52.310;7.230;2024-01-10T06:19:57;11.07;;;6.57;;
7729;SDS011;3908;52.310;7.230;2024-01-10T06:22:47;11.63;;;6.53;;
7729;SDS011;3908;52.310;7.230;2024-01-10T06:25:34;8.97;;;6.40;;
7729;SDS011;3908;52.310;7.230;2024-01-10T06:28:22;8.60;;;6.07;;
7729;SDS011;3908;52.310;7.230;2024-01-10T06:31:09;10.83;;;7.30;;
7729;SDS011;3908;52.310;7.230;2024-01-10T06:33:56;15.87;;;7.37;;
7729;SDS011;3908;52.310;7.230;2024-01-10T06:36:44;12.37;;;7.03;;
7729;SDS011;3908;52.310;7.230;2024-01-10T06:39:32;13.50;;;7.17;;
7729;SDS011;3908;52.310;7.230;2024-01-10T06:42:20;8.93;;;6.40;;
7729;SDS011;3908;52.310;7.230;2024-01-10T06:45:07;8.93;;;6.33;;
7729;SDS011;3908;52.310;7.230;2024-01-10T06:47:57;10.00;;;7.60;;
7729;SDS011;3908;52.310;7.230;2024-01-10T06:50:44;9.60;;;6.67;;
7729;SDS011;3908;52.310;7.230;2024-01-10T06:53:31;10.73;;;6.60;;
7729;SDS011;3908;52.310;7.230;2024-01-10T06:56:20;13.03;;;6.57;;
7729;SDS011;3908;52.310;7.230;2024-01-10T06:59:11;9.23;;;6.60;;
7729;SDS011;3908;52.310;7.230;2024-01-10T07:01:58;10.60;;;5.77;;
7729;SDS011;3908;52.310;7.230;2024-01-10T07:04:47;9.10;;;5.27;;
7729;SDS011;3908;52.310;7.230;2024-01-10T07:07:35;10.27;;;5.63;;
7729;SDS011;3908;52.310;7.230;2024-01-10T07:10:23;7.23;;;5.33;;
7729;SDS011;3908;52.310;7.230;2024-01-10T07:13:14;7.90;;;6.87;;
7729;SDS011;3908;52.310;7.230;2024-01-10T07:16:01;11.97;;;6.27;;
7729;SDS011;3908;52.310;7.230;2024-01-10T07:18:48;9.60;;;6.73;;
7729;SDS011;3908;52.310;7.230;2024-01-10T07:21:36;11.63;;;5.73;;
7729;SDS011;3908;52.310;7.230;2024-01-10T07:24:27;10.73;;;5.60;;
7729;SDS011;3908;52.310;7.230;2024-01-10T07:27:14;11.60;;;5.70;;
7729;SDS011;3908;52.310;7.230;2024-01-10T07:30:06;12.23;;;6.77;;
7729;SDS011;3908;52.310;7.230;2024-01-10T07:33:02;15.30;;;7.00;;
7729;SDS011;3908;52.310;7.230;2024-01-10T07:35:49;9.70;;;6.30;;
7729;SDS011;3908;52.310;7.230;2024-01-10T07:38:38;10.43;;;5.97;;
7729;SDS011;3908;52.310;7.230;2024-01-10T07:41:25;10.07;;;6.60;;
7729;SDS011;3908;52.310;7.230;2024-01-10T07:44:12;7.63;;;5.20;;
7729;SDS011;3908;52.310;7.230;2024-01-10T07:47:01;6.80;;;5.43;;
7729;SDS011;3908;52.310;7.230;2024-01-10T07:49:48;8.67;;;5.87;;
7729;SDS011;3908;52.310;7.230;2024-01-10T07:52:36;6.97;;;5.47;;
7729;SDS011;3908;52.310;7.230;2024-01-10T07:55:23;6.20;;;4.83;;
7729;SDS011;3908;52.310;7.230;2024-01-10T07:58:10;14.60;;;6.33;;
7729;SDS011;3908;52.310;7.230;2024-01-10T08:00:57;11.77;;;6.70;;
7729;SDS011;3908;52.310;7.230;2024-01-10T08:03:46;5.60;;;4.87;;
7729;SDS011;3908;52.310;7.230;2024-01-10T08:06:33;10.37;;;6.00;;
7729;SDS011;3908;52.310;7.230;2024-01-10T08:09:23;8.27;;;5.33;;
7729;SDS011;3908;52.310;7.230;2024-01-10T08:12:10;7.07;;;5.50;;
7729;SDS011;3908;52.310;7.230;2024-01-10T08:14:59;13.33;;;6.33;;
7729;SDS011;3908;52.310;7.230;2024-01-10T08:17:47;14.40;;;5.67;;
7729;SDS011;3908;52.310;7.230;2024-01-10T08:20:36;12.83;;;6.33;;
7729;SDS011;3908;52.310;7.230;2024-01-10T08:23:25;9.33;;;6.73;;
7729;SDS011;3908;52.310;7.230;2024-01-10T08:26:12;12.53;;;6.77;;
7729;SDS011;3908;52.310;7.230;2024-01-10T08:28:59;10.80;;;6.17;;
7729;SDS011;3908;52.310;7.230;2024-01-10T08:31:46;9.03;;;6.07;;
7729;SDS011;3908;52.310;7.230;2024-01-10T08:34:34;6.03;;;5.10;;
7729;SDS011;3908;52.310;7.230;2024-01-10T08:37:23;7.77;;;6.97;;
7729;SDS011;3908;52.310;7.230;2024-01-10T08:40:10;9.17;;;6.23;;
7729;SDS011;3908;52.310;7.230;2024-01-10T08:43:00;14.67;;;6.87;;
7729;SDS011;3908;52.310;7.230;2024-01-10T08:45:48;13.73;;;5.77;;
7729;SDS011;3908;52.310;7.230;2024-01-10T08:48:35;10.17;;;6.73;;
7729;SDS011;3908;52.310;7.230;2024-01-10T08:51:22;12.20;;;6.50;;
7729;SDS011;3908;52.310;7.230;2024-01-10T08:54:11;11.77;;;6.47;;
7729;SDS011;3908;52.310;7.230;2024-01-10T08:59:41;7.80;;;5.27;;
7729;SDS011;3908;52.310;7.230;2024-01-10T09:02:28;11.20;;;6.50;;
7729;SDS011;3908;52.310;7.230;2024-01-10T09:05:15;11.07;;;6.30;;
7729;SDS011;3908;52.310;7.230;2024-01-10T09:08:04;10.93;;;6.17;;
7729;SDS011;3908;52.310;7.230;2024-01-10T09:10:52;10.30;;;6.17;;
7729;SDS011;3908;52.310;7.230;2024-01-10T09:13:40;15.23;;;5.60;;
7729;SDS011;3908;52.310;7.230;2024-01-10T09:16:27;12.47;;;6.03;;
7729;SDS011;3908;52.310;7.230;2024-01-10T09:19:14;13.83;;;6.23;;
7729;SDS011;3908;52.310;7.230;2024-01-10T09:22:01;9.23;;;5.60;;
7729;SDS011;3908;52.310;7.230;2024-01-10T09:24:48;10.83;;;5.83;;
7729;SDS011;3908;52.310;7.230;2024-01-10T09:27:37;11.50;;;6.93;;
7729;SDS011;3908;52.310;7.230;2024-01-10T09:30:30;10.67;;;7.13;;
7729;SDS011;3908;52.310;7.230;2024-01-10T09:33:17;8.10;;;6.30;;
7729;SDS011;3908;52.310;7.230;2024-01-10T09:36:04;11.47;;;7.47;;
7729;SDS011;3908;52.310;7.230;2024-01-10T09:38:55;13.17;;;6.13;;
7729;SDS011;3908;52.310;7.230;2024-01-10T09:41:45;9.53;;;6.40;;
7729;SDS011;3908;52.310;7.230;2024-01-10T09:44:38;9.20;;;6.50;;
7729;SDS011;3908;52.310;7.230;2024-01-10T09:47:25;8.07;;;5.73;;
7729;SDS011;3908;52.310;7.230;2024-01-10T09:50:16;10.63;;;5.73;;
7729;SDS011;3908;52.310;7.230;2024-01-10T09:53:06;8.33;;;5.17;;
7729;SDS011;3908;52.310;7.230;2024-01-10T09:55:54;8.77;;;5.90;;
7729;SDS011;3908;52.310;7.230;2024-01-10T09:58:45;11.80;;;6.47;;
7729;SDS011;3908;52.310;7.230;2024-01-10T10:01:36;9.50;;;5.63;;
7729;SDS011;3908;52.310;7.230;2024-01-10T10:04:27;14.77;;;7.17;;
7729;SDS011;3908;52.310;7.230;2024-01-10T10:07:15;12.07;;;6.63;;
7729;SDS011;3908;52.310;7.230;2024-01-10T10:10:05;9.53;;;5.13;;
7729;SDS011;3908;52.310;7.230;2024-01-10T10:12:54;10.43;;;5.27;;
7729;SDS011;3908;52.310;7.230;2024-01-10T10:15:41;9.37;;;6.23;;
7729;SDS011;3908;52.310;7.230;2024-01-10T10:18:29;11.30;;;6.37;;
7729;SDS011;3908;52.310;7.230;2024-01-10T10:21:18;7.67;;;5.03;;
7729;SDS011;3908;52.310;7.230;2024-01-10T10:24:05;11.07;;;6.37;;
7729;SDS011;3908;52.310;7.230;2024-01-10T10:26:55;21.70;;;6.27;;
7729;SDS011;3908;52.310;7.230;2024-01-10T10:29:46;11.77;;;7.20;;
7729;SDS011;3908;52.310;7.230;2024-01-10T10:32:33;12.10;;;6.70;;
7729;SDS011;3908;52.310;7.230;2024-01-10T10:35:21;7.97;;;5.57;;
7729;SDS011;3908;52.310;7.230;2024-01-10T10:38:10;11.67;;;6.60;;
7729;SDS011;3908;52.310;7.230;2024-01-10T10:40:58;12.43;;;6.10;;
7729;SDS011;3908;52.310;7.230;2024-01-10T10:43:46;10.93;;;6.27;;
7729;SDS011;3908;52.310;7.230;2024-01-10T10:46:35;11.67;;;6.20;;
7729;SDS011;3908;52.310;7.230;2024-01-10T10:49:28;10.23;;;6.80;;
7729;SDS011;3908;52.310;7.230;2024-01-10T10:52:18;8.37;;;6.60;;
7729;SDS011;3908;52.310;7.230;2024-01-10T10:55:06;11.47;;;6.47;;
7729;SDS011;3908;52.310;7.230;2024-01-10T10:57:55;11.77;;;6.67;;
7729;SDS011;3908;52.310;7.230;2024-01-10T11:00:42;9.27;;;7.07;;
7729;SDS011;3908;52.310;7.230;2024-01-10T11:03:36;15.60;;;7.70;;
7729;SDS011;3908;52.310;7.230;2024-01-10T11:06:25;9.40;;;6.27;;
7729;SDS011;3908;52.310;7.230;2024-01-10T11:09:17;8.67;;;7.00;;
7729;SDS011;3908;52.310;7.230;2024-01-10T11:12:11;14.33;;;7.03;;
7729;SDS011;3908;52.310;7.230;2024-01-10T11:15:14;10.70;;;5.87;;
7729;SDS011;3908;52.310;7.230;2024-01-10T11:18:18;12.97;;;6.17;;
7729;SDS011;3908;52.310;7.230;2024-01-10T11:21:18;9.53;;;6.33;;
7729;SDS011;3908;52.310;7.230;2024-01-10T11:24:17;8.67;;;5.80;;
7729;SDS011;3908;52.310;7.230;2024-01-10T11:27:06;9.47;;;6.23;;
7729;SDS011;3908;52.310;7.230;2024-01-10T11:29:57;7.70;;;5.80;;
7729;SDS011;3908;52.310;7.230;2024-01-10T11:32:44;14.07;;;6.90;;
7729;SDS011;3908;52.310;7.230;2024-01-10T11:35:31;10.47;;;6.17;;
7729;SDS011;3908;52.310;7.230;2024-01-10T11:38:19;9.63;;;5.90;;
7729;SDS011;3908;52.310;7.230;2024-01-10T11:41:11;9.40;;;6.10;;
7729;SDS011;3908;52.310;7.230;2024-01-10T11:47:28;11.17;;;6.53;;
7729;SDS011;3908;52.310;7.230;2024-01-10T11:50:18;9.83;;;6.13;;
7729;SDS011;3908;52.310;7.230;2024-01-10T11:53:08;13.47;;;7.20;;
7729;SDS011;3908;52.310;7.230;2024-01-10T11:55:56;12.23;;;7.57;;
7729;SDS011;3908;52.310;7.230;2024-01-10T11:58:57;9.10;;;6.43;;
7729;SDS011;3908;52.310;7.230;2024-01-10T12:01:49;12.07;;;7.00;;
7729;SDS011;3908;52.310;7.230;2024-01-10T12:04:37;11.37;;;6.10;;
7729;SDS011;3908;52.310;7.230;2024-01-10T12:07:25;11.53;;;6.90;;
7729;SDS011;3908;52.310;7.230;2024-01-10T12:10:14;14.00;;;6.53;;
7729;SDS011;3908;52.310;7.230;2024-01-10T12:13:02;17.77;;;6.97;;
7729;SDS011;3908;52.310;7.230;2024-01-10T12:15:51;15.70;;;6.93;;
7729;SDS011;3908;52.310;7.230;2024-01-10T12:58:00;10.77;;;7.27;;
7729;SDS011;3908;52.310;7.230;2024-01-10T13:00:52;8.73;;;5.80;;
7729;SDS011;3908;52.310;7.230;2024-01-10T14:03:04;15.80;;;8.03;;
7729;SDS011;3908;52.310;7.230;2024-01-10T14:05:51;11.73;;;6.57;;
7729;SDS011;3908;52.310;7.230;2024-01-10T14:08:38;14.37;;;7.87;;
7729;SDS011;3908;52.310;7.230;2024-01-10T14:11:29;20.43;;;7.13;;
7729;SDS011;3908;52.310;7.230;2024-01-10T14:14:16;14.67;;;7.53;;
7729;SDS011;3908;52.310;7.230;2024-01-10T14:17:05;10.97;;;6.23;;
7729;SDS011;3908;52.310;7.230;2024-01-10T14:19:55;12.27;;;7.80;;
7729;SDS011;3908;52.310;7.230;2024-01-10T14:22:42;12.50;;;6.23;;
7729;SDS011;3908;52.310;7.230;2024-01-10T14:25:33;11.97;;;6.23;;
7729;SDS011;3908;52.310;7.230;2024-01-10T14:28:22;10.47;;;6.43;;
7729;SDS011;3908;52.310;7.230;2024-01-10T14:31:15;13.13;;;6.67;;
7729;SDS011;3908;52.310;7.230;2024-01-10T14:34:04;10.73;;;6.67;;
7729;SDS011;3908;52.310;7.230;2024-01-10T14:36:51;14.93;;;7.40;;
7729;SDS011;3908;52.310;7.230;2024-01-10T14:39:41;10.57;;;6.40;;
7729;SDS011;3908;52.310;7.230;2024-01-10T14:50:16;11.93;;;6.80;;
7729;SDS011;3908;52.310;7.230;2024-01-10T15:42:12;12.13;;;7.70;;
7729;SDS011;3908;52.310;7.230;2024-01-10T15:52:45;15.63;;;7.60;;
7729;SDS011;3908;52.310;7.230;2024-01-10T15:55:37;9.80;;;6.83;;
7729;SDS011;3908;52.310;7.230;2024-01-10T15:58:26;11.57;;;7.23;;
7729;SDS011;3908;52.310;7.230;2024-01-10T16:01:13;12.10;;;7.60;;
7729;SDS011;3908;52.310;7.230;2024-01-10T16:04:00;11.97;;;7.00;;
7729;SDS011;3908;52.310;7.230;2024-01-10T16:06:47;15.47;;;6.80;;
7729;SDS011;3908;52.310;7.230;2024-01-10T16:09:39;14.30;;;7.17;;
7729;SDS011;3908;52.310;7.230;2024-01-10T16:12:27;12.10;;;6.47;;
7729;SDS011;3908;52.310;7.230;2024-01-10T16:15:19;12.60;;;6.40;;
7729;SDS011;3908;52.310;7.230;2024-01-10T16:18:06;12.00;;;6.40;;
7729;SDS011;3908;52.310;7.230;2024-01-10T16:54:31;13.53;;;7.33;;
7729;SDS011;3908;52.310;7.230;2024-01-10T16:57:18;16.17;;;7.30;;
7729;SDS011;3908;52.310;7.230;2024-01-10T17:00:07;14.93;;;7.43;;
7729;SDS011;3908;52.310;7.230;2024-01-10T17:02:55;16.17;;;7.37;;
7729;SDS011;3908;52.310;7.230;2024-01-10T17:05:43;10.07;;;6.60;;
7729;SDS011;3908;52.310;7.230;2024-01-10T17:08:30;14.67;;;6.53;;
7729;SDS011;3908;52.310;7.230;2024-01-10T17:11:19;15.03;;;6.90;;
7729;SDS011;3908;52.310;7.230;2024-01-10T17:14:06;14.63;;;7.40;;
7729;SDS011;3908;52.310;7.230;2024-01-10T17:16:54;13.90;;;7.30;;
7729;SDS011;3908;52.310;7.230;2024-01-10T17:19:41;18.37;;;7.27;;
7729;SDS011;3908;52.310;7.230;2024-01-10T17:22:28;14.53;;;7.60;;
7729;SDS011;3908;52.310;7.230;2024-01-10T17:25:17;19.10;;;6.77;;
7729;SDS011;3908;52.310;7.230;2024-01-10T18:04:25;15.43;;;7.83;;
7729;SDS011;3908;52.310;7.230;2024-01-10T18:07:13;18.43;;;8.13;;
7729;SDS011;3908;52.310;7.230;2024-01-10T18:10:00;14.27;;;7.93;;
7729;SDS011;3908;52.310;7.230;2024-01-10T18:12:48;13.03;;;8.47;;
7729;SDS011;3908;52.310;7.230;2024-01-10T18:15:42;18.30;;;7.90;;
7729;SDS011;3908;52.310;7.230;2024-01-10T18:18:40;17.17;;;8.20;;
7729;SDS011;3908;52.310;7.230;2024-01-10T18:21:38;16.10;;;8.00;;
7729;SDS011;3908;52.310;7.230;2024-01-10T18:24:25;14.93;;;8.43;;
7729;SDS011;3908;52.310;7.230;2024-01-10T18:27:13;15.37;;;7.30;;
7729;SDS011;3908;52.310;7.230;2024-01-10T18:30:02;19.43;;;8.63;;
7729;SDS011;3908;52.310;7.230;2024-01-10T18:32:53;13.73;;;7.70;;
7729;SDS011;3908;52.310;7.230;2024-01-10T18:35:47;16.60;;;8.67;;
7729;SDS011;3908;52.310;7.230;2024-01-10T18:38:47;16.23;;;8.97;;
7729;SDS011;3908;52.310;7.230;2024-01-10T18:41:42;18.13;;;9.03;;
7729;SDS011;3908;52.310;7.230;2024-01-10T18:44:30;16.40;;;7.83;;
7729;SDS011;3908;52.310;7.230;2024-01-10T19:18:23;15.00;;;7.57;;
7729;SDS011;3908;52.310;7.230;2024-01-10T19:21:10;11.40;;;7.90;;
7729;SDS011;3908;52.310;7.230;2024-01-10T19:26:32;16.83;;;6.93;;
7729;SDS011;3908;52.310;7.230;2024-01-10T19:29:19;17.00;;;8.23;;
7729;SDS011;3908;52.310;7.230;2024-01-10T19:32:10;21.50;;;9.23;;
7729;SDS011;3908;52.310;7.230;2024-01-10T19:34:58;15.50;;;8.93;;
7729;SDS011;3908;52.310;7.230;2024-01-10T19:37:45;15.70;;;7.37;;
7729;SDS011;3908;52.310;7.230;2024-01-10T19:40:33;14.30;;;8.03;;
7729;SDS011;3908;52.310;7.230;2024-01-10T19:43:25;23.97;;;9.90;;
7729;SDS011;3908;52.310;7.230;2024-01-10T19:46:13;15.20;;;8.37;;
7729;SDS011;3908;52.310;7.230;2024-01-10T19:49:00;14.67;;;8.47;;
7729;SDS011;3908;52.310;7.230;2024-01-10T19:51:49;14.43;;;8.80;;
7729;SDS011;3908;52.310;7.230;2024-01-10T19:54:36;19.77;;;9.00;;
7729;SDS011;3908;52.310;7.230;2024-01-10T19:57:23;17.67;;;8.87;;
7729;SDS011;3908;52.310;7.230;2024-01-10T20:00:10;14.97;;;7.63;;
7729;SDS011;3908;52.310;7.230;2024-01-10T20:03:00;15.07;;;7.17;;
7729;SDS011;3908;52.310;7.230;2024-01-10T20:05:48;13.43;;;8.03;;
7729;SDS011;3908;52.310;7.230;2024-01-10T20:08:39;11.57;;;7.50;;
7729;SDS011;3908;52.310;7.230;2024-01-10T20:11:26;14.97;;;7.23;;
7729;SDS011;3908;52.310;7.230;2024-01-10T20:14:17;16.00;;;8.70;;
7729;SDS011;3908;52.310;7.230;2024-01-10T20:17:04;13.50;;;8.03;;
7729;SDS011;3908;52.310;7.230;2024-01-10T20:19:51;16.07;;;7.93;;
7729;SDS011;3908;52.310;7.230;2024-01-10T20:22:39;11.67;;;7.83;;
7729;SDS011;3908;52.310;7.230;2024-01-10T20:25:28;16.33;;;7.90;;
7729;SDS011;3908;52.310;7.230;2024-01-10T20:28:15;17.77;;;7.83;;
7729;SDS011;3908;52.310;7.230;2024-01-10T20:31:03;12.83;;;8.57;;
7729;SDS011;3908;52.310;7.230;2024-01-10T20:33:52;16.80;;;8.43;;
7729;SDS011;3908;52.310;7.230;2024-01-10T20:36:39;14.90;;;7.63;;
7729;SDS011;3908;52.310;7.230;2024-01-10T20:39:28;13.53;;;7.43;;
7729;SDS011;3908;52.310;7.230;2024-01-10T20:42:17;14.33;;;8.20;;
7729;SDS011;3908;52.310;7.230;2024-01-10T20:45:08;14.97;;;8.17;;
7729;SDS011;3908;52.310;7.230;2024-01-10T20:47:55;16.90;;;9.03;;
7729;SDS011;3908;52.310;7.230;2024-01-10T20:50:42;15.53;;;7.93;;
7729;SDS011;3908;52.310;7.230;2024-01-10T20:53:35;12.73;;;7.80;;
7729;SDS011;3908;52.310;7.230;2024-01-10T21:50:43;17.10;;;7.73;;
7729;SDS011;3908;52.310;7.230;2024-01-10T22:01:17;11.67;;;8.37;;
7729;SDS011;3908;52.310;7.230;2024-01-10T22:04:06;18.10;;;8.87;;
7729;SDS011;3908;52.310;7.230;2024-01-10T22:06:55;15.30;;;7.70;;
7729;SDS011;3908;52.310;7.230;2024-01-10T22:25:15;14.37;;;8.40;;
7729;SDS011;3908;52.310;7.230;2024-01-10T22:28:06;12.93;;;7.53;;
7729;SDS011;3908;52.310;7.230;2024-01-10T22:30:53;11.70;;;7.20;;
7729;SDS011;3908;52.310;7.230;2024-01-10T23:07:08;17.13;;;8.47;;
7729;SDS011;3908;52.310;7.230;2024-01-10T23:09:56;15.33;;;7.43;;
7729;SDS011;3908;52.310;7.230;2024-01-10T23:12:43;17.60;;;9.90;;
7729;SDS011;3908;52.310;7.230;2024-01-10T23:15:30;16.67;;;8.27;;
7729;SDS011;3908;52.310;7.230;2024-01-10T23:18:18;17.47;;;9.77;;
7729;SDS011;3908;52.310;7.230;2024-01-10T23:21:08;18.70;;;8.57;;
7729;SDS011;3908;52.310;7.230;2024-01-10T23:23:56;16.50;;;8.93;;
7729;SDS011;3908;52.310;7.230;2024-01-10T23:26:43;11.90;;;8.47;;
7729;SDS011;3908;52.310;7.230;2024-01-10T23:29:31;14.43;;;8.57;;
7729;SDS011;3908;52.310;7.230;2024-01-10T23:32:18;18.17;;;10.00;;
7729;SDS011;3908;52.310;7.230;2024-01-10T23:35:05;13.97;;;8.57;;
7729;SDS011;3908;52.310;7.230;2024-01-10T23:37:56;14.60;;;8.20;;
7729;SDS011;3908;52.310;7.230;2024-01-10T23:40:44;16.37;;;9.07;;
7729;SDS011;3908;52.310;7.230;2024-01-10T23:43:32;17.73;;;8.70;;
7729;SDS011;3908;52.310;7.230;2024-01-10T23:46:21;14.67;;;7.93;;
7729;SDS011;3908;52.310;7.230;2024-01-10T23:49:08;16.07;;;7.80;;
7729;SDS011;3908;52.310;7.230;2024-01-10T23:51:56;13.80;;;7.60;;
7729;SDS011;3908;52.310;7.230;2024-01-10T23:54:43;20.83;;;9.07;;
7729;SDS011;3908;52.310;7.230;2024-01-10T23:57:31;11.47;;;7.50;;
